createdAt,value
2017-08-02T00:01:53.624Z,21.50
2017-08-02T00:04:21.107Z,21.60
2017-08-02T00:06:49.359Z,21.50
2017-08-02T00:09:17.628Z,21.60
2017-08-02T00:11:45.128Z,21.60
2017-08-02T00:14:12.622Z,21.70
2017-08-02T00:16:40.104Z,21.70
2017-08-02T00:19:07.600Z,21.70
2017-08-02T00:21:35.076Z,21.50
2017-08-02T00:24:02.572Z,21.50
2017-08-02T00:26:30.816Z,21.80
2017-08-02T00:28:58.322Z,21.80
2017-08-02T00:31:25.809Z,21.70
2017-08-02T00:33:53.320Z,21.70
2017-08-02T00:36:20.837Z,21.60
2017-08-02T00:38:48.339Z,21.70
2017-08-02T00:41:15.832Z,21.40
2017-08-02T00:43:43.342Z,21.50
2017-08-02T00:46:10.824Z,21.00
2017-08-02T00:48:38.315Z,21.10
2017-08-02T00:51:06.575Z,21.20
2017-08-02T00:53:34.080Z,21.20
2017-08-02T00:56:01.567Z,21.30
2017-08-02T00:58:29.840Z,21.40
2017-08-02T01:00:57.327Z,21.30
2017-08-02T01:03:24.824Z,21.30
2017-08-02T01:05:52.332Z,20.90
2017-08-02T01:08:19.822Z,20.60
2017-08-02T01:10:47.320Z,20.60
2017-08-02T01:13:14.796Z,20.70
2017-08-02T01:15:42.308Z,20.70
2017-08-02T01:18:09.791Z,20.50
2017-08-02T01:20:37.288Z,20.40
2017-08-02T01:23:04.772Z,20.30
2017-08-02T01:25:32.267Z,20.20
2017-08-02T01:27:59.787Z,20.20
2017-08-02T01:30:27.289Z,20.30
2017-08-02T01:32:54.776Z,20.10
2017-08-02T01:35:22.286Z,20.20
2017-08-02T01:37:49.775Z,20.30
2017-08-02T01:40:17.271Z,20.20
2017-08-02T01:42:44.766Z,20.20
2017-08-02T01:45:12.277Z,20.10
2017-08-02T01:47:39.754Z,19.90
2017-08-02T01:50:07.252Z,19.90
2017-08-02T01:52:34.740Z,19.70
2017-08-02T01:55:02.238Z,19.80
2017-08-02T01:57:29.713Z,19.80
2017-08-02T01:59:57.207Z,19.50
2017-08-02T02:02:24.690Z,19.60
2017-08-02T02:04:52.209Z,19.50
2017-08-02T02:07:19.704Z,19.50
2017-08-02T02:09:47.961Z,19.40
2017-08-02T02:12:15.460Z,19.30
2017-08-02T02:14:42.955Z,19.50
2017-08-02T02:17:11.218Z,19.40
2017-08-02T02:19:39.463Z,19.40
2017-08-02T02:22:06.970Z,19.30
2017-08-02T02:24:34.464Z,19.40
2017-08-02T02:27:01.960Z,19.40
2017-08-02T02:29:29.432Z,19.50
2017-08-02T02:31:56.944Z,19.50
2017-08-02T02:34:24.434Z,19.40
2017-08-02T02:36:51.933Z,19.40
2017-08-02T02:39:19.420Z,19.50
2017-08-02T02:41:47.684Z,19.50
2017-08-02T02:44:16.863Z,19.40
2017-08-02T02:46:45.155Z,19.40
2017-08-02T02:49:12.646Z,19.40
2017-08-02T02:51:40.166Z,19.20
2017-08-02T02:54:07.644Z,19.40
2017-08-02T02:56:35.907Z,19.30
2017-08-02T02:59:04.153Z,19.40
2017-08-02T03:01:31.643Z,19.40
2017-08-02T03:03:59.173Z,19.40
2017-08-02T03:06:26.701Z,19.30
2017-08-02T03:08:54.948Z,19.20
2017-08-02T03:11:23.191Z,19.40
2017-08-02T03:13:50.693Z,19.30
2017-08-02T03:16:18.172Z,19.40
2017-08-02T03:18:45.673Z,19.40
2017-08-02T03:21:13.187Z,19.30
2017-08-02T03:23:40.710Z,19.50
2017-08-02T03:26:08.197Z,19.60
2017-08-02T03:28:35.702Z,19.70
2017-08-02T03:31:03.182Z,19.80
2017-08-02T03:33:30.679Z,19.90
2017-08-02T03:35:58.155Z,20.00
2017-08-02T03:38:25.674Z,19.90
2017-08-02T03:40:53.159Z,19.70
2017-08-02T03:43:20.675Z,19.80
2017-08-02T03:45:48.169Z,20.00
2017-08-02T03:48:15.675Z,20.00
2017-08-02T03:50:43.165Z,19.20
2017-08-02T03:53:10.682Z,19.20
2017-08-02T03:55:38.164Z,19.20
2017-08-02T03:58:05.672Z,19.10
2017-08-02T04:00:33.155Z,19.20
2017-08-02T04:03:01.432Z,19.30
2017-08-02T04:05:28.915Z,19.30
2017-08-02T04:07:56.441Z,19.10
2017-08-02T04:10:23.959Z,19.20
2017-08-02T04:12:52.207Z,19.30
2017-08-02T04:15:20.555Z,19.50
2017-08-02T04:17:48.053Z,19.40
2017-08-02T04:20:15.569Z,19.50
2017-08-02T04:22:43.857Z,19.20
2017-08-02T04:25:11.356Z,19.20
2017-08-02T04:27:38.849Z,19.30
2017-08-02T04:30:06.359Z,19.20
2017-08-02T04:32:33.888Z,19.20
2017-08-02T04:35:02.164Z,19.50
2017-08-02T04:37:29.661Z,19.40
2017-08-02T04:39:57.168Z,19.60
2017-08-02T04:42:24.656Z,19.80
2017-08-02T04:44:52.172Z,19.90
2017-08-02T04:47:19.667Z,19.80
2017-08-02T04:49:47.951Z,19.50
2017-08-02T04:52:15.443Z,19.50
2017-08-02T04:54:42.955Z,19.60
2017-08-02T04:57:10.465Z,19.70
2017-08-02T04:59:37.943Z,19.50
2017-08-02T05:02:05.470Z,19.50
2017-08-02T05:04:32.959Z,19.50
2017-08-02T05:07:00.476Z,19.20
2017-08-02T05:09:28.004Z,19.40
2017-08-02T05:11:55.507Z,19.30
2017-08-02T05:14:22.996Z,19.20
2017-08-02T05:16:50.511Z,19.10
2017-08-02T05:19:18.000Z,19.30
2017-08-02T05:21:45.503Z,19.30
2017-08-02T05:24:13.016Z,19.30
2017-08-02T05:26:40.521Z,19.30
2017-08-02T05:29:08.016Z,19.20
2017-08-02T05:31:35.537Z,19.30
2017-08-02T05:34:03.038Z,19.30
2017-08-02T05:36:30.574Z,19.50
2017-08-02T05:38:58.085Z,19.40
2017-08-02T05:41:25.627Z,19.50
2017-08-02T05:43:53.167Z,19.70
2017-08-02T05:46:20.649Z,19.80
2017-08-02T05:48:48.164Z,19.90
2017-08-02T05:51:16.576Z,20.00
2017-08-02T05:53:44.112Z,19.90
2017-08-02T05:56:11.650Z,19.80
2017-08-02T05:58:39.199Z,20.00
2017-08-02T06:01:06.695Z,19.90
2017-08-02T06:03:34.207Z,19.90
2017-08-02T06:06:01.700Z,19.80
2017-08-02T06:08:29.240Z,20.00
2017-08-02T06:10:56.741Z,20.20
2017-08-02T06:13:25.064Z,20.60
2017-08-02T06:15:52.568Z,20.60
2017-08-02T06:18:20.071Z,20.80
2017-08-02T06:20:47.609Z,20.90
2017-08-02T06:23:15.234Z,21.00
2017-08-02T06:25:42.753Z,21.10
2017-08-02T06:28:10.253Z,21.30
2017-08-02T06:30:37.764Z,21.40
2017-08-02T06:33:05.465Z,21.50
2017-08-02T06:35:33.092Z,21.60
2017-08-02T06:38:01.010Z,21.60
2017-08-02T06:40:28.692Z,21.60
2017-08-02T06:42:57.432Z,21.70
2017-08-02T06:45:25.863Z,21.70
2017-08-02T06:47:53.349Z,21.60
2017-08-02T06:50:20.946Z,21.80
2017-08-02T06:52:49.054Z,21.80
2017-08-02T06:55:17.249Z,21.90
2017-08-02T06:57:45.652Z,22.10
2017-08-02T07:00:13.304Z,22.00
2017-08-02T07:02:43.153Z,22.10
2017-08-02T07:05:11.718Z,22.10
2017-08-02T07:07:39.340Z,22.10
2017-08-02T07:10:07.102Z,22.20
2017-08-02T07:12:36.170Z,22.30
2017-08-02T07:15:03.974Z,22.40
2017-08-02T07:17:31.517Z,22.40
2017-08-02T07:19:59.067Z,22.50
2017-08-02T07:22:26.665Z,22.40
2017-08-02T07:24:54.983Z,22.80
2017-08-02T07:27:29.421Z,22.70
2017-08-02T07:29:58.723Z,22.60
2017-08-02T07:32:27.214Z,23.00
2017-08-02T07:34:55.927Z,22.90
2017-08-02T07:37:25.987Z,23.10
2017-08-02T07:39:53.525Z,23.30
2017-08-02T07:42:21.190Z,23.10
2017-08-02T07:44:48.784Z,23.40
2017-08-02T07:47:18.112Z,23.80
2017-08-02T07:49:45.612Z,23.80
2017-08-02T07:52:13.106Z,24.00
2017-08-02T07:54:40.592Z,23.70
2017-08-02T07:57:08.315Z,23.80
2017-08-02T07:59:35.932Z,24.00
2017-08-02T08:02:04.078Z,24.20
2017-08-02T08:04:32.893Z,24.50
2017-08-02T08:07:00.420Z,24.70
2017-08-02T08:09:27.916Z,24.80
2017-08-02T08:11:56.246Z,25.00
2017-08-02T08:14:23.832Z,24.90
2017-08-02T08:16:51.336Z,25.20
2017-08-02T08:19:19.496Z,25.20
2017-08-02T08:21:46.979Z,24.80
2017-08-02T08:24:15.249Z,25.10
2017-08-02T08:26:42.736Z,25.00
2017-08-02T08:29:10.232Z,25.90
2017-08-02T08:31:37.717Z,26.20
2017-08-02T08:34:05.227Z,26.70
2017-08-02T08:36:32.704Z,27.30
2017-08-02T08:39:00.203Z,27.60
2017-08-02T08:41:27.687Z,28.00
2017-08-02T08:43:55.204Z,28.10
2017-08-02T08:46:22.689Z,27.90
2017-08-02T08:48:50.196Z,28.00
2017-08-02T08:51:17.765Z,28.40
2017-08-02T08:53:45.255Z,29.00
2017-08-02T08:56:12.766Z,29.20
2017-08-02T08:58:40.247Z,29.70
2017-08-02T09:01:07.766Z,30.10
2017-08-02T09:03:36.012Z,30.00
2017-08-02T09:06:03.518Z,29.90
2017-08-02T09:08:31.016Z,30.40
2017-08-02T09:10:58.519Z,29.60
2017-08-02T09:13:26.013Z,30.50
2017-08-02T09:15:53.673Z,31.50
2017-08-02T09:18:21.193Z,31.80
2017-08-02T09:20:48.712Z,32.20
2017-08-02T09:23:16.212Z,32.90
2017-08-02T09:25:43.691Z,32.90
2017-08-02T09:28:11.200Z,33.10
2017-08-02T09:30:38.692Z,33.00
2017-08-02T09:33:06.195Z,29.20
2017-08-02T09:35:33.668Z,30.10
2017-08-02T09:38:01.167Z,31.60
2017-08-02T09:40:28.749Z,29.80
2017-08-02T09:42:56.251Z,30.80
2017-08-02T09:45:23.732Z,32.30
2017-08-02T09:47:51.228Z,33.60
2017-08-02T09:50:18.720Z,34.60
2017-08-02T09:52:46.220Z,34.30
2017-08-02T09:55:13.700Z,34.30
2017-08-02T09:57:41.344Z,34.20
2017-08-02T10:00:08.814Z,34.20
2017-08-02T10:02:36.327Z,34.40
2017-08-02T10:05:03.813Z,35.00
2017-08-02T10:07:31.299Z,33.50
2017-08-02T10:09:58.795Z,34.30
2017-08-02T10:12:26.380Z,34.80
2017-08-02T10:14:53.887Z,35.10
2017-08-02T10:17:21.369Z,35.20
2017-08-02T10:19:48.867Z,35.90
2017-08-02T10:22:16.343Z,36.30
2017-08-02T10:24:43.839Z,36.80
2017-08-02T10:27:11.324Z,37.40
2017-08-02T10:29:38.842Z,37.80
2017-08-02T10:32:06.327Z,37.00
2017-08-02T10:34:33.820Z,35.70
2017-08-02T10:37:01.294Z,35.70
2017-08-02T10:39:28.812Z,36.30
2017-08-02T10:41:56.288Z,31.10
2017-08-02T10:44:23.767Z,32.30
2017-08-02T10:46:52.028Z,33.40
2017-08-02T10:49:20.295Z,33.50
2017-08-02T10:51:48.559Z,33.20
2017-08-02T10:54:16.800Z,33.30
2017-08-02T10:56:44.291Z,33.30
2017-08-02T10:59:11.777Z,33.30
2017-08-02T11:01:39.284Z,33.10
2017-08-02T11:04:06.763Z,32.80
2017-08-02T11:06:34.264Z,32.40
2017-08-02T11:09:01.749Z,32.10
2017-08-02T11:11:29.239Z,32.00
2017-08-02T11:13:56.715Z,31.70
2017-08-02T11:16:24.211Z,31.60
2017-08-02T11:18:51.711Z,31.40
2017-08-02T11:21:19.230Z,31.10
2017-08-02T11:23:46.708Z,30.90
2017-08-02T11:26:14.183Z,30.70
2017-08-02T11:28:41.689Z,30.50
2017-08-02T11:31:09.167Z,30.30
2017-08-02T11:33:36.667Z,30.10
2017-08-02T11:36:04.153Z,29.90
2017-08-02T11:38:31.656Z,30.00
2017-08-02T11:40:59.143Z,30.00
2017-08-02T11:43:26.694Z,29.80
2017-08-02T11:45:54.175Z,29.70
2017-08-02T11:48:21.672Z,29.40
2017-08-02T11:50:49.156Z,29.20
2017-08-02T11:53:16.655Z,29.40
2017-08-02T11:55:44.140Z,29.50
2017-08-02T11:58:11.655Z,29.60
2017-08-02T12:00:39.127Z,29.60
2017-08-02T12:03:06.600Z,29.70
2017-08-02T12:05:34.871Z,29.60
2017-08-02T12:08:02.360Z,29.50
2017-08-02T12:10:29.851Z,29.50
2017-08-02T12:12:58.092Z,29.30
2017-08-02T12:15:26.351Z,29.20
2017-08-02T12:17:53.827Z,29.20
2017-08-02T12:20:21.341Z,29.20
2017-08-02T12:22:48.838Z,29.20
2017-08-02T12:25:16.343Z,29.20
2017-08-02T12:27:43.827Z,29.20
2017-08-02T12:30:11.299Z,29.10
2017-08-02T12:32:38.791Z,29.10
2017-08-02T12:35:06.275Z,29.00
2017-08-02T12:37:33.763Z,28.80
2017-08-02T12:40:01.251Z,28.80
2017-08-02T12:42:28.879Z,28.80
2017-08-02T12:44:56.356Z,28.00
2017-08-02T12:47:23.852Z,28.30
2017-08-02T12:49:51.332Z,28.40
2017-08-02T12:52:18.823Z,28.50
2017-08-02T12:54:46.300Z,28.50
2017-08-02T12:57:13.799Z,28.60
2017-08-02T12:59:41.269Z,28.70
2017-08-02T13:02:08.759Z,28.70
2017-08-02T13:04:36.996Z,28.80
2017-08-02T13:07:04.496Z,28.70
2017-08-02T13:09:31.971Z,28.70
2017-08-02T13:11:59.463Z,28.70
2017-08-02T13:14:27.722Z,28.70
2017-08-02T13:16:55.236Z,28.60
2017-08-02T13:19:22.720Z,28.60
2017-08-02T13:21:50.288Z,28.50
2017-08-02T13:24:17.785Z,28.50
2017-08-02T13:26:46.027Z,28.40
2017-08-02T13:29:13.525Z,28.40
2017-08-02T13:31:41.008Z,28.40
2017-08-02T13:34:08.500Z,28.30
2017-08-02T13:36:35.975Z,28.30
2017-08-02T13:39:03.466Z,28.30
2017-08-02T13:41:30.947Z,28.20
2017-08-02T13:43:58.448Z,28.20
2017-08-02T13:46:25.923Z,28.30
2017-08-02T13:48:53.415Z,28.30
2017-08-02T13:51:20.896Z,28.30
2017-08-02T13:53:48.396Z,28.30
2017-08-02T13:56:15.879Z,28.40
2017-08-02T13:58:43.372Z,28.30
2017-08-02T14:01:10.850Z,28.40
2017-08-02T14:03:38.346Z,28.40
2017-08-02T14:06:05.824Z,28.50
2017-08-02T14:08:33.343Z,28.40
2017-08-02T14:11:00.823Z,28.40
2017-08-02T14:13:28.399Z,28.40
2017-08-02T14:15:55.899Z,28.30
2017-08-02T14:18:24.135Z,28.30
2017-08-02T14:20:51.636Z,28.30
2017-08-02T14:23:19.118Z,28.30
2017-08-02T14:25:46.636Z,28.30
2017-08-02T14:28:14.116Z,28.30
2017-08-02T14:30:42.387Z,28.30
2017-08-02T14:33:10.632Z,28.30
2017-08-02T14:35:38.128Z,28.30
2017-08-02T14:38:05.616Z,28.30
2017-08-02T14:40:33.891Z,28.20
2017-08-02T14:43:02.147Z,28.20
2017-08-02T14:45:30.463Z,28.20
2017-08-02T14:47:57.951Z,28.20
2017-08-02T14:50:26.216Z,28.20
2017-08-02T14:52:54.460Z,28.20
2017-08-02T14:55:22.722Z,28.20
2017-08-02T14:57:50.202Z,28.10
2017-08-02T15:00:17.799Z,28.20
2017-08-02T15:02:45.282Z,28.20
2017-08-02T15:05:12.777Z,28.20
2017-08-02T15:07:40.256Z,28.20
2017-08-02T15:10:07.754Z,28.20
2017-08-02T15:12:35.233Z,28.20
2017-08-02T15:15:03.491Z,28.10
2017-08-02T15:17:31.734Z,28.10
2017-08-02T15:19:59.251Z,28.10
2017-08-02T15:22:26.734Z,28.10
2017-08-02T15:24:54.253Z,28.10
2017-08-02T15:27:21.748Z,28.10
2017-08-02T15:29:49.247Z,28.00
2017-08-02T15:32:16.721Z,28.00
2017-08-02T15:34:44.235Z,28.00
2017-08-02T15:37:11.715Z,27.90
2017-08-02T15:39:39.251Z,28.00
2017-08-02T15:42:06.745Z,27.90
2017-08-02T15:44:34.235Z,27.90
2017-08-02T15:47:01.724Z,27.80
2017-08-02T15:49:29.968Z,27.80
2017-08-02T15:51:58.256Z,27.80
2017-08-02T15:54:25.725Z,27.70
2017-08-02T15:56:53.220Z,27.80
2017-08-02T15:59:21.463Z,27.60
2017-08-02T16:01:48.964Z,27.60
2017-08-02T16:04:17.148Z,27.60
2017-08-02T16:06:44.640Z,27.60
2017-08-02T16:09:12.883Z,27.70
2017-08-02T16:11:41.141Z,27.70
2017-08-02T16:14:08.615Z,27.70
2017-08-02T16:16:36.182Z,27.70
2017-08-02T16:19:03.686Z,27.70
2017-08-02T16:21:31.943Z,27.70
2017-08-02T16:24:00.196Z,27.70
2017-08-02T16:26:28.455Z,27.70
2017-08-02T16:28:56.695Z,27.70
2017-08-02T16:31:24.187Z,27.60
2017-08-02T16:33:51.679Z,27.60
2017-08-02T16:36:19.202Z,27.60
2017-08-02T16:38:46.687Z,27.60
2017-08-02T16:41:14.941Z,27.70
2017-08-02T16:43:43.216Z,27.70
2017-08-02T16:46:11.666Z,27.70
2017-08-02T16:48:39.165Z,27.60
2017-08-02T16:51:06.646Z,27.60
2017-08-02T16:53:34.911Z,27.50
2017-08-02T16:56:03.285Z,27.50
2017-08-02T16:58:30.799Z,27.50
2017-08-02T17:00:58.272Z,27.50
2017-08-02T17:03:25.744Z,27.50
2017-08-02T17:05:53.252Z,27.50
2017-08-02T17:08:20.741Z,27.50
2017-08-02T17:10:48.259Z,27.50
2017-08-02T17:13:15.740Z,27.50
2017-08-02T17:15:43.235Z,27.40
2017-08-02T17:18:10.728Z,27.20
2017-08-02T17:20:38.224Z,27.10
2017-08-02T17:23:05.700Z,27.00
2017-08-02T17:25:33.197Z,26.80
2017-08-02T17:28:00.669Z,26.80
2017-08-02T17:30:28.164Z,26.90
2017-08-02T17:32:56.412Z,26.80
2017-08-02T17:35:23.928Z,26.80
2017-08-02T17:37:51.405Z,26.80
2017-08-02T17:40:18.924Z,26.70
2017-08-02T17:42:46.409Z,26.60
2017-08-02T17:45:13.892Z,26.80
2017-08-02T17:47:41.385Z,26.80
2017-08-02T17:50:08.872Z,26.60
2017-08-02T17:52:36.372Z,26.60
2017-08-02T17:55:03.842Z,26.60
2017-08-02T17:57:31.372Z,26.60
2017-08-02T17:59:58.870Z,26.60
2017-08-02T18:02:26.380Z,26.60
2017-08-02T18:04:53.878Z,26.60
2017-08-02T18:07:21.362Z,26.50
2017-08-02T18:09:48.868Z,26.50
2017-08-02T18:12:16.384Z,26.40
2017-08-02T18:14:43.880Z,26.20
2017-08-02T18:17:11.573Z,26.20
2017-08-02T18:19:39.079Z,26.10
2017-08-02T18:22:06.568Z,26.10
2017-08-02T18:24:34.077Z,26.10
2017-08-02T18:27:01.563Z,26.00
2017-08-02T18:29:29.165Z,26.00
2017-08-02T18:31:56.663Z,26.00
2017-08-02T18:34:24.189Z,26.00
2017-08-02T18:36:51.683Z,26.00
2017-08-02T18:39:19.189Z,26.00
2017-08-02T18:41:46.694Z,26.00
2017-08-02T18:44:14.244Z,26.00
2017-08-02T18:46:41.730Z,25.40
2017-08-02T18:49:09.995Z,25.00
2017-08-02T18:51:37.507Z,24.90
2017-08-02T18:54:05.010Z,25.00
2017-08-02T18:56:32.517Z,25.00
2017-08-02T18:59:00.789Z,25.10
2017-08-02T19:01:28.304Z,25.00
2017-08-02T19:03:55.788Z,24.90
2017-08-02T19:06:23.300Z,24.70
2017-08-02T19:08:50.786Z,24.60
2017-08-02T19:11:18.316Z,24.70
2017-08-02T19:13:46.649Z,24.70
2017-08-02T19:16:14.139Z,24.70
2017-08-02T19:18:41.663Z,24.80
2017-08-02T19:21:09.158Z,25.00
2017-08-02T19:23:36.637Z,25.00
2017-08-02T19:26:04.148Z,25.10
2017-08-02T19:28:31.640Z,25.20
2017-08-02T19:30:59.158Z,25.20
2017-08-02T19:33:27.413Z,25.10
2017-08-02T19:35:55.698Z,24.90
2017-08-02T19:38:23.194Z,24.90
2017-08-02T19:40:50.703Z,25.00
2017-08-02T19:43:18.187Z,24.90
2017-08-02T19:45:45.667Z,24.80
2017-08-02T19:48:13.227Z,24.70
2017-08-02T19:50:40.726Z,24.70
2017-08-02T19:53:08.228Z,24.80
2017-08-02T19:55:35.708Z,24.80
2017-08-02T19:58:03.979Z,24.70
2017-08-02T20:00:31.452Z,24.70
2017-08-02T20:02:58.981Z,24.70
2017-08-02T20:05:26.504Z,24.70
2017-08-02T20:07:54.998Z,24.60
2017-08-02T20:10:22.537Z,24.50
2017-08-02T20:12:50.041Z,24.50
2017-08-02T20:15:17.535Z,24.50
2017-08-02T20:17:45.139Z,24.40
2017-08-02T20:20:13.387Z,24.30
2017-08-02T20:22:40.899Z,24.30
2017-08-02T20:25:08.377Z,24.30
2017-08-02T20:27:35.868Z,24.40
2017-08-02T20:30:03.387Z,24.40
2017-08-02T20:32:30.892Z,24.30
2017-08-02T20:34:58.372Z,24.40
2017-08-02T20:37:25.879Z,24.30
2017-08-02T20:39:53.356Z,24.30
2017-08-02T20:42:20.864Z,24.30
2017-08-02T20:44:48.349Z,24.20
2017-08-02T20:47:15.843Z,24.10
2017-08-02T20:49:43.351Z,24.00
2017-08-02T20:52:10.834Z,24.00
2017-08-02T20:54:38.328Z,23.90
2017-08-02T20:57:05.824Z,23.90
2017-08-02T20:59:33.327Z,23.90
2017-08-02T21:02:00.814Z,24.00
2017-08-02T21:04:28.340Z,23.80
2017-08-02T21:06:55.824Z,23.80
2017-08-02T21:09:23.353Z,23.80
2017-08-02T21:11:50.846Z,23.80
2017-08-02T21:14:18.376Z,23.80
2017-08-02T21:16:45.864Z,23.90
2017-08-02T21:19:13.359Z,23.90
2017-08-02T21:21:40.840Z,23.80
2017-08-02T21:24:08.361Z,23.80
2017-08-02T21:26:35.853Z,23.80
2017-08-02T21:29:03.379Z,23.80
2017-08-02T21:31:31.636Z,23.70
2017-08-02T21:33:59.153Z,23.70
2017-08-02T21:36:26.662Z,23.70
2017-08-02T21:38:54.166Z,23.70
2017-08-02T21:41:21.662Z,23.70
2017-08-02T21:43:49.176Z,23.60
2017-08-02T21:46:16.684Z,23.60
2017-08-02T21:48:44.192Z,23.60
2017-08-02T21:51:11.688Z,23.60
2017-08-02T21:53:39.947Z,23.70
2017-08-02T21:56:08.215Z,23.60
2017-08-02T21:58:36.459Z,23.60
2017-08-02T22:01:03.975Z,23.60
2017-08-02T22:03:31.520Z,23.60
2017-08-02T22:05:59.044Z,23.60
2017-08-02T22:08:26.525Z,23.50
2017-08-02T22:10:54.028Z,23.60
2017-08-02T22:13:21.513Z,23.60
2017-08-02T22:15:49.143Z,23.60
2017-08-02T22:18:16.665Z,23.50
2017-08-02T22:20:44.172Z,23.60
2017-08-02T22:23:11.644Z,23.70
2017-08-02T22:25:39.149Z,23.70
2017-08-02T22:28:07.408Z,23.70
2017-08-02T22:30:34.908Z,23.70
2017-08-02T22:33:02.401Z,23.80
2017-08-02T22:35:29.911Z,23.90
2017-08-02T22:37:57.404Z,23.90
2017-08-02T22:40:24.905Z,24.00
2017-08-02T22:42:52.404Z,24.00
2017-08-02T22:45:19.907Z,24.00
2017-08-02T22:47:47.404Z,24.10
2017-08-02T22:50:14.918Z,23.80
2017-08-02T22:52:42.413Z,23.70
2017-08-02T22:55:09.896Z,23.80
2017-08-02T22:57:37.478Z,23.50
2017-08-02T23:00:04.956Z,23.30
2017-08-02T23:02:32.471Z,23.20
2017-08-02T23:04:59.967Z,23.20
2017-08-02T23:07:27.467Z,23.10
2017-08-02T23:09:54.973Z,23.10
2017-08-02T23:12:22.492Z,23.20
2017-08-02T23:14:49.979Z,23.30
2017-08-02T23:17:17.482Z,23.50
2017-08-02T23:19:44.980Z,23.50
2017-08-02T23:22:12.484Z,23.60
2017-08-02T23:24:39.969Z,23.60
2017-08-02T23:27:07.486Z,23.70
2017-08-02T23:29:34.971Z,23.70
2017-08-02T23:32:03.241Z,23.80
2017-08-02T23:34:30.722Z,23.70
2017-08-02T23:36:58.274Z,23.80
2017-08-02T23:39:25.764Z,23.80
2017-08-02T23:41:53.268Z,23.80
2017-08-02T23:44:20.749Z,23.70
2017-08-02T23:46:49.015Z,23.80
2017-08-02T23:49:16.512Z,23.70
2017-08-02T23:51:44.028Z,23.70
2017-08-02T23:54:11.520Z,23.70
2017-08-02T23:56:39.805Z,23.60
2017-08-02T23:59:07.289Z,23.50
